createdAt,value
2022-12-08T00:01:12.537Z,3.40
2022-12-08T00:03:39.343Z,3.17
2022-12-08T00:06:35.527Z,2.80
2022-12-08T00:09:20.341Z,3.13
2022-12-08T00:11:46.569Z,3.78
2022-12-08T00:14:12.858Z,3.65
2022-12-08T00:16:39.432Z,4.15
2022-12-08T00:19:05.730Z,4.45
2022-12-08T00:21:31.994Z,5.18
2022-12-08T00:23:58.286Z,5.18
2022-12-08T00:26:24.554Z,6.85
2022-12-08T00:28:50.878Z,7.20
2022-12-08T00:31:17.403Z,5.00
2022-12-08T00:33:43.774Z,4.38
2022-12-08T00:36:11.627Z,4.75
2022-12-08T00:38:38.371Z,5.82
2022-12-08T00:41:07.418Z,5.70
2022-12-08T00:43:33.665Z,4.40
2022-12-08T00:46:00.031Z,5.07
2022-12-08T00:48:26.351Z,5.70
2022-12-08T00:50:52.610Z,4.50
2022-12-08T00:53:18.914Z,5.63
2022-12-08T00:55:45.227Z,5.93
2022-12-08T00:58:11.585Z,5.95
2022-12-08T01:00:40.032Z,5.80
2022-12-08T01:03:06.497Z,6.82
2022-12-08T01:05:32.806Z,6.18
2022-12-08T01:07:59.246Z,7.65
2022-12-08T01:10:25.643Z,10.98
2022-12-08T01:12:52.021Z,7.95
2022-12-08T01:15:18.356Z,9.80
2022-12-08T01:17:44.717Z,7.00
2022-12-08T01:20:11.707Z,6.25
2022-12-08T01:22:38.207Z,5.55
2022-12-08T01:25:04.643Z,6.20
2022-12-08T01:27:30.908Z,6.03
2022-12-08T01:29:57.161Z,5.82
2022-12-08T01:32:23.463Z,6.13
2022-12-08T01:34:49.819Z,5.57
2022-12-08T01:37:16.131Z,4.82
2022-12-08T01:39:42.648Z,4.32
2022-12-08T01:42:22.362Z,3.30
2022-12-08T01:44:59.773Z,4.30
2022-12-08T01:47:29.322Z,3.75
2022-12-08T01:49:55.776Z,3.25
2022-12-08T01:52:28.915Z,3.33
2022-12-08T01:55:00.562Z,2.65
2022-12-08T01:57:33.709Z,3.80
2022-12-08T02:00:02.353Z,3.00
2022-12-08T02:02:31.907Z,2.40
2022-12-08T02:04:58.625Z,2.03
2022-12-08T02:07:25.174Z,1.85
2022-12-08T02:09:53.020Z,2.10
2022-12-08T02:12:19.408Z,2.25
2022-12-08T02:14:45.687Z,2.13
2022-12-08T02:17:21.439Z,2.60
2022-12-08T02:22:15.964Z,2.88
2022-12-08T02:24:56.381Z,3.03
2022-12-08T02:27:36.563Z,3.28
2022-12-08T02:30:08.992Z,3.47
2022-12-08T02:32:41.815Z,3.97
2022-12-08T02:35:13.654Z,4.47
2022-12-08T02:37:47.310Z,5.32
2022-12-08T02:40:22.061Z,5.13
2022-12-08T02:43:03.480Z,4.93
2022-12-08T02:45:31.977Z,5.20
2022-12-08T02:47:58.567Z,5.43
2022-12-08T02:50:25.043Z,5.85
2022-12-08T02:52:51.313Z,5.43
2022-12-08T02:55:28.134Z,6.50
2022-12-08T02:57:54.406Z,5.80
2022-12-08T03:00:22.021Z,6.97
2022-12-08T03:02:54.651Z,6.07
2022-12-08T03:05:39.084Z,5.70
2022-12-08T03:08:16.459Z,5.28
2022-12-08T03:10:53.325Z,5.30
2022-12-08T03:13:21.165Z,5.47
2022-12-08T03:15:49.305Z,5.35
2022-12-08T03:18:16.957Z,4.95
2022-12-08T03:20:45.173Z,4.97
2022-12-08T03:23:13.613Z,5.18
2022-12-08T03:25:53.720Z,4.85
2022-12-08T03:28:20.278Z,4.80
2022-12-08T03:30:48.114Z,4.65
2022-12-08T03:33:17.186Z,5.25
2022-12-08T03:35:44.893Z,5.32
2022-12-08T03:38:12.926Z,5.45
2022-12-08T03:40:39.490Z,5.22
2022-12-08T03:43:05.924Z,4.70
2022-12-08T03:45:32.535Z,4.65
2022-12-08T03:47:58.912Z,4.10
2022-12-08T03:50:25.339Z,3.92
2022-12-08T03:52:51.702Z,3.50
2022-12-08T03:55:18.001Z,3.05
2022-12-08T03:57:44.496Z,3.30
2022-12-08T04:00:13.697Z,2.97
2022-12-08T04:02:40.079Z,2.78
2022-12-08T04:05:06.715Z,3.30
2022-12-08T04:07:33.174Z,2.40
2022-12-08T04:09:59.578Z,2.60
2022-12-08T04:12:25.955Z,2.60
2022-12-08T04:14:52.295Z,2.97
2022-12-08T04:17:18.637Z,2.70
2022-12-08T04:19:44.902Z,2.10
2022-12-08T04:22:11.584Z,2.00
2022-12-08T04:24:37.845Z,1.70
2022-12-08T04:27:04.394Z,1.48
2022-12-08T04:29:30.661Z,1.38
2022-12-08T04:31:57.052Z,1.80
2022-12-08T04:34:23.400Z,1.50
2022-12-08T04:36:49.702Z,1.20
2022-12-08T04:39:16.045Z,1.10
2022-12-08T04:41:42.713Z,1.13
2022-12-08T04:44:08.983Z,1.50
2022-12-08T04:46:40.184Z,1.58
2022-12-08T04:49:09.411Z,1.50
2022-12-08T04:51:35.663Z,1.33
2022-12-08T04:54:01.980Z,1.42
2022-12-08T04:56:28.237Z,1.27
2022-12-08T04:58:54.685Z,1.10
2022-12-08T05:01:21.029Z,1.95
2022-12-08T05:03:47.442Z,1.85
2022-12-08T05:06:14.087Z,1.90
2022-12-08T05:08:41.009Z,1.95
2022-12-08T05:11:08.925Z,2.10
2022-12-08T05:13:35.292Z,2.35
2022-12-08T05:16:10.371Z,1.92
2022-12-08T05:18:37.234Z,1.50
2022-12-08T05:21:04.003Z,1.70
2022-12-08T05:23:30.327Z,1.38
2022-12-08T05:25:56.844Z,1.50
2022-12-08T05:31:09.787Z,1.60
2022-12-08T05:33:36.085Z,1.40
2022-12-08T05:36:02.481Z,1.60
2022-12-08T05:38:29.526Z,1.30
2022-12-08T05:40:55.848Z,1.00
2022-12-08T05:43:22.156Z,1.23
2022-12-08T05:45:48.763Z,1.30
2022-12-08T05:48:15.111Z,1.10
2022-12-08T05:50:45.700Z,1.13
2022-12-08T05:53:11.995Z,1.35
2022-12-08T05:55:38.313Z,0.88
2022-12-08T05:58:08.051Z,0.93
2022-12-08T06:00:34.852Z,1.00
2022-12-08T06:03:01.374Z,1.05
2022-12-08T06:05:27.864Z,1.45
2022-12-08T06:07:54.250Z,1.40
2022-12-08T06:10:20.598Z,0.90
2022-12-08T06:12:46.953Z,0.95
2022-12-08T06:15:13.201Z,1.00
2022-12-08T06:17:39.570Z,1.50
2022-12-08T06:20:06.692Z,0.90
2022-12-08T06:22:33.270Z,1.15
2022-12-08T06:25:00.275Z,1.33
2022-12-08T06:27:26.599Z,1.20
2022-12-08T06:29:52.889Z,1.08
2022-12-08T06:32:24.358Z,1.20
2022-12-08T06:34:53.438Z,1.00
2022-12-08T06:37:19.684Z,1.05
2022-12-08T06:39:46.019Z,1.30
2022-12-08T06:42:31.203Z,0.90
2022-12-08T06:44:57.540Z,1.10
2022-12-08T06:47:26.303Z,1.00
2022-12-08T06:49:53.008Z,0.70
2022-12-08T06:52:19.317Z,0.88
2022-12-08T06:54:45.604Z,1.00
2022-12-08T06:57:12.122Z,1.02
2022-12-08T06:59:38.863Z,1.00
2022-12-08T07:02:05.511Z,1.05
2022-12-08T07:04:31.859Z,1.58
2022-12-08T07:06:58.305Z,1.02
2022-12-08T07:09:24.596Z,0.73
2022-12-08T07:11:50.954Z,0.68
2022-12-08T07:14:17.490Z,0.60
2022-12-08T07:16:43.819Z,0.73
2022-12-08T07:19:11.159Z,1.13
2022-12-08T07:21:37.454Z,1.15
2022-12-08T07:24:03.767Z,1.00
2022-12-08T07:26:30.043Z,1.20
2022-12-08T07:28:56.355Z,1.30
2022-12-08T07:31:24.096Z,1.58
2022-12-08T07:33:50.910Z,2.25
2022-12-08T07:36:17.495Z,1.95
2022-12-08T07:38:44.219Z,2.90
2022-12-08T07:41:19.388Z,2.65
2022-12-08T07:43:46.121Z,2.70
2022-12-08T07:46:13.199Z,2.88
2022-12-08T07:48:39.919Z,3.30
2022-12-08T07:51:06.547Z,3.28
2022-12-08T07:53:32.902Z,3.20
2022-12-08T07:55:59.356Z,3.65
2022-12-08T07:58:25.866Z,3.20
2022-12-08T08:00:52.460Z,3.65
2022-12-08T08:03:19.026Z,4.05
2022-12-08T08:05:47.355Z,3.58
2022-12-08T08:08:13.702Z,3.45
2022-12-08T08:10:40.133Z,3.15
2022-12-08T08:13:06.453Z,2.75
2022-12-08T08:15:32.891Z,2.42
2022-12-08T08:17:59.393Z,2.25
2022-12-08T08:20:25.788Z,2.40
2022-12-08T08:22:52.293Z,1.90
2022-12-08T08:25:19.841Z,1.98
2022-12-08T08:27:46.611Z,1.95
2022-12-08T08:30:19.731Z,1.92
2022-12-08T08:32:47.195Z,1.63
2022-12-08T08:35:13.548Z,1.30
2022-12-08T08:37:43.018Z,1.70
2022-12-08T08:40:12.813Z,1.50
2022-12-08T08:42:39.103Z,1.33
2022-12-08T08:45:05.636Z,1.70
2022-12-08T08:47:32.001Z,1.42
2022-12-08T08:49:58.252Z,1.27
2022-12-08T08:52:24.596Z,1.50
2022-12-08T08:54:50.998Z,1.55
2022-12-08T08:57:23.595Z,1.50
2022-12-08T08:59:51.714Z,1.48
2022-12-08T09:02:18.993Z,1.40
2022-12-08T09:04:45.532Z,1.55
2022-12-08T09:07:12.226Z,1.45
2022-12-08T09:09:38.894Z,1.45
2022-12-08T09:12:05.559Z,1.40
2022-12-08T09:14:31.981Z,1.48
2022-12-08T09:16:58.298Z,1.60
2022-12-08T09:19:24.593Z,1.58
2022-12-08T09:21:50.957Z,1.48
2022-12-08T09:24:17.308Z,1.40
2022-12-08T09:26:44.373Z,1.30
2022-12-08T09:29:11.970Z,1.30
2022-12-08T09:31:38.493Z,1.33
2022-12-08T09:34:05.093Z,2.00
2022-12-08T09:36:31.620Z,1.50
2022-12-08T09:38:58.122Z,1.30
2022-12-08T09:41:42.035Z,1.50
2022-12-08T09:44:20.613Z,1.40
2022-12-08T09:46:48.694Z,1.50
2022-12-08T09:49:17.480Z,1.58
2022-12-08T09:51:45.486Z,1.98
2022-12-08T09:54:17.295Z,1.70
2022-12-08T09:56:43.642Z,1.10
2022-12-08T09:59:27.469Z,1.40
2022-12-08T10:01:54.634Z,1.40
2022-12-08T10:04:26.225Z,1.30
2022-12-08T10:06:55.621Z,1.50
2022-12-08T10:09:37.143Z,1.30
2022-12-08T10:12:08.207Z,1.50
2022-12-08T10:14:45.499Z,1.70
2022-12-08T10:17:18.090Z,1.70
2022-12-08T10:19:45.450Z,2.05
2022-12-08T10:22:22.481Z,1.42
2022-12-08T10:24:52.951Z,1.45
2022-12-08T10:27:19.604Z,1.45
2022-12-08T10:29:45.929Z,1.42
2022-12-08T10:32:38.469Z,1.10
2022-12-08T10:35:04.800Z,1.30
2022-12-08T10:37:31.187Z,1.40
2022-12-08T10:40:01.787Z,1.25
2022-12-08T10:42:33.825Z,1.20
2022-12-08T10:45:03.326Z,1.20
2022-12-08T10:47:30.301Z,1.30
2022-12-08T10:50:15.717Z,1.75
2022-12-08T10:52:42.280Z,1.33
2022-12-08T10:55:18.930Z,1.10
2022-12-08T10:57:45.287Z,0.93
2022-12-08T11:00:16.389Z,1.20
2022-12-08T11:03:02.608Z,0.90
2022-12-08T11:07:55.803Z,0.65
2022-12-08T11:10:28.941Z,1.10
2022-12-08T11:12:57.900Z,1.38
2022-12-08T11:15:24.315Z,1.70
2022-12-08T11:17:59.896Z,1.48
2022-12-08T11:20:26.300Z,1.52
2022-12-08T11:22:53.968Z,1.48
2022-12-08T11:25:27.580Z,1.50
2022-12-08T11:27:56.979Z,1.30
2022-12-08T11:30:24.919Z,1.48
2022-12-08T11:32:55.358Z,1.17
2022-12-08T11:35:21.795Z,1.25
2022-12-08T11:37:48.224Z,1.33
2022-12-08T11:40:20.911Z,1.38
2022-12-08T11:42:54.495Z,1.30
2022-12-08T11:45:24.429Z,1.48
2022-12-08T11:47:56.134Z,1.42
2022-12-08T11:50:25.674Z,1.40
2022-12-08T11:52:52.081Z,2.03
2022-12-08T11:55:42.684Z,1.40
2022-12-08T11:58:12.163Z,1.70
2022-12-08T12:00:38.609Z,1.50
2022-12-08T12:03:20.413Z,1.20
2022-12-08T12:06:13.278Z,1.70
2022-12-08T12:08:42.921Z,1.60
2022-12-08T12:11:47.010Z,1.50
2022-12-08T12:14:23.666Z,1.40
2022-12-08T12:16:58.731Z,1.42
2022-12-08T12:19:25.642Z,1.80
2022-12-08T12:21:55.004Z,2.13
2022-12-08T12:24:29.435Z,3.55
2022-12-08T12:27:05.098Z,3.45
2022-12-08T12:29:33.427Z,1.95
2022-12-08T12:32:02.608Z,3.55
2022-12-08T12:34:34.013Z,2.28
2022-12-08T12:37:19.946Z,1.52
2022-12-08T12:39:54.939Z,2.35
2022-12-08T12:42:42.221Z,2.17
2022-12-08T12:45:16.192Z,1.88
2022-12-08T12:47:58.867Z,2.05
2022-12-08T12:50:34.369Z,1.95
2022-12-08T12:53:15.754Z,2.08
2022-12-08T12:55:45.319Z,1.63
2022-12-08T12:58:30.160Z,1.90
2022-12-08T13:01:08.561Z,1.90
2022-12-08T13:03:35.046Z,1.85
2022-12-08T13:06:01.453Z,2.28
2022-12-08T13:08:28.240Z,2.13
2022-12-08T13:11:03.140Z,2.17
2022-12-08T13:13:29.573Z,2.55
2022-12-08T13:15:57.850Z,2.20
2022-12-08T13:18:26.329Z,2.22
2022-12-08T13:20:54.298Z,2.60
2022-12-08T13:23:29.748Z,2.42
2022-12-08T13:26:16.352Z,2.33
2022-12-08T13:29:04.208Z,1.80
2022-12-08T13:31:36.649Z,1.98
2022-12-08T13:34:21.821Z,1.55
2022-12-08T13:36:48.142Z,4.13
2022-12-08T13:39:19.661Z,4.47
2022-12-08T13:41:50.358Z,9.38
2022-12-08T13:47:33.296Z,5.95
2022-12-08T13:51:23.636Z,3.42
2022-12-08T13:58:46.988Z,1.63
2022-12-08T14:01:15.596Z,2.90
2022-12-08T14:03:58.315Z,2.50
2022-12-08T14:06:36.133Z,2.30
2022-12-08T14:09:10.812Z,2.17
2022-12-08T14:11:43.094Z,2.40
2022-12-08T14:14:53.888Z,2.90
2022-12-08T14:17:12.305Z,2.92
2022-12-08T14:19:38.732Z,3.13
2022-12-08T14:22:16.456Z,3.72
2022-12-08T14:24:46.757Z,5.68
2022-12-08T14:27:23.840Z,2.97
2022-12-08T14:29:52.236Z,3.60
2022-12-08T14:32:32.827Z,2.55
2022-12-08T14:34:59.226Z,2.78
2022-12-08T14:37:26.786Z,2.42
2022-12-08T14:39:57.006Z,2.97
2022-12-08T14:42:24.673Z,3.28
2022-12-08T14:45:17.215Z,4.07
2022-12-08T14:47:43.777Z,3.33
2022-12-08T14:50:28.924Z,3.70
2022-12-08T14:52:55.354Z,3.93
2022-12-08T14:55:21.802Z,3.90
2022-12-08T14:57:48.400Z,3.50
2022-12-08T15:00:22.052Z,3.88
2022-12-08T15:02:48.390Z,3.25
2022-12-08T15:05:18.948Z,3.42
2022-12-08T15:07:47.158Z,4.18
2022-12-08T15:10:16.287Z,3.95
2022-12-08T15:13:01.548Z,4.40
2022-12-08T15:15:28.594Z,4.00
2022-12-08T15:18:16.147Z,4.43
2022-12-08T15:20:47.210Z,3.90
2022-12-08T15:23:21.286Z,4.40
2022-12-08T15:25:47.821Z,4.03
2022-12-08T15:28:15.697Z,4.45
2022-12-08T15:30:42.329Z,4.75
2022-12-08T15:33:08.669Z,4.25
2022-12-08T15:35:40.493Z,4.20
2022-12-08T15:38:07.660Z,3.90
2022-12-08T15:40:34.004Z,3.95
2022-12-08T15:43:00.465Z,4.43
2022-12-08T15:45:29.443Z,4.60
2022-12-08T15:47:56.266Z,5.10
2022-12-08T15:50:23.416Z,5.20
2022-12-08T15:52:50.495Z,5.88
2022-12-08T15:55:20.784Z,5.68
2022-12-08T16:00:52.204Z,5.80
2022-12-08T16:03:51.666Z,6.20
2022-12-08T16:06:57.654Z,5.47
2022-12-08T16:09:11.120Z,5.75
2022-12-08T16:12:08.316Z,5.28
2022-12-08T16:17:22.367Z,5.85
2022-12-08T16:19:48.704Z,6.50
2022-12-08T16:22:51.814Z,5.38
2022-12-08T16:25:17.872Z,6.05
2022-12-08T16:28:08.148Z,5.43
2022-12-08T16:30:31.224Z,6.60
2022-12-08T16:32:57.917Z,6.07
2022-12-08T16:35:24.243Z,7.68
2022-12-08T16:37:50.541Z,6.47
2022-12-08T16:40:16.931Z,6.10
2022-12-08T16:42:43.952Z,6.30
2022-12-08T16:45:14.858Z,7.00
2022-12-08T16:47:42.366Z,6.35
2022-12-08T16:50:12.327Z,6.30
2022-12-08T16:52:38.915Z,6.65
2022-12-08T16:55:15.986Z,6.30
2022-12-08T16:57:43.221Z,6.47
2022-12-08T17:00:11.516Z,7.70
2022-12-08T17:02:37.951Z,7.32
2022-12-08T17:05:05.850Z,7.05
2022-12-08T17:07:32.390Z,6.75
2022-12-08T17:09:59.093Z,7.05
2022-12-08T17:12:25.462Z,6.75
2022-12-08T17:14:51.780Z,6.65
2022-12-08T17:17:18.037Z,6.90
2022-12-08T17:19:44.434Z,6.32
2022-12-08T17:22:10.915Z,6.85
2022-12-08T17:24:37.920Z,6.25
2022-12-08T17:27:05.088Z,6.60
2022-12-08T17:29:31.621Z,7.00
2022-12-08T17:31:58.095Z,5.88
2022-12-08T17:34:24.490Z,6.03
2022-12-08T17:36:50.900Z,6.90
2022-12-08T17:39:19.010Z,6.15
2022-12-08T17:41:45.931Z,6.57
2022-12-08T17:44:13.673Z,7.28
2022-12-08T17:46:43.386Z,6.97
2022-12-08T17:49:12.625Z,6.85
2022-12-08T17:51:38.927Z,7.05
2022-12-08T17:54:05.553Z,7.95
2022-12-08T17:56:31.996Z,7.07
2022-12-08T17:58:58.349Z,7.63
2022-12-08T18:01:25.289Z,7.75
2022-12-08T18:03:52.131Z,7.93
2022-12-08T18:06:18.557Z,8.00
2022-12-08T18:08:44.972Z,7.30
2022-12-08T18:11:13.455Z,6.90
2022-12-08T18:13:39.938Z,7.35
2022-12-08T18:16:06.343Z,7.32
2022-12-08T18:18:32.641Z,7.75
2022-12-08T18:20:58.963Z,7.93
2022-12-08T18:23:25.457Z,7.93
2022-12-08T18:25:51.884Z,8.52
2022-12-08T18:28:18.289Z,7.97
2022-12-08T18:30:44.702Z,8.75
2022-12-08T18:33:11.284Z,8.95
2022-12-08T18:35:38.968Z,9.15
2022-12-08T18:38:05.469Z,8.65
2022-12-08T18:40:31.836Z,8.80
2022-12-08T18:42:58.147Z,8.40
2022-12-08T18:45:24.559Z,8.07
2022-12-08T18:47:51.722Z,8.77
2022-12-08T18:50:18.379Z,9.40
2022-12-08T18:52:45.504Z,9.73
2022-12-08T18:55:12.441Z,9.68
2022-12-08T18:57:39.527Z,9.20
2022-12-08T19:00:06.734Z,9.32
2022-12-08T19:02:33.977Z,10.20
2022-12-08T19:05:00.535Z,9.85
2022-12-08T19:07:27.168Z,9.20
2022-12-08T19:09:54.058Z,10.50
2022-12-08T19:12:20.391Z,11.02
2022-12-08T19:14:46.691Z,10.52
2022-12-08T19:17:13.442Z,11.85
2022-12-08T19:19:39.736Z,11.10
2022-12-08T19:22:06.101Z,11.43
2022-12-08T19:24:34.678Z,10.35
2022-12-08T19:27:01.060Z,10.32
2022-12-08T19:29:27.341Z,11.70
2022-12-08T19:31:53.666Z,10.70
2022-12-08T19:34:20.047Z,11.38
2022-12-08T19:36:46.422Z,11.55
2022-12-08T19:39:39.144Z,12.75
2022-12-08T19:42:34.187Z,12.75
2022-12-08T19:45:02.408Z,12.57
2022-12-08T19:47:28.866Z,13.65
2022-12-08T19:50:15.235Z,12.45
2022-12-08T19:52:41.627Z,13.00
2022-12-08T19:55:09.617Z,13.32
2022-12-08T19:57:35.973Z,13.57
2022-12-08T20:00:02.771Z,13.43
2022-12-08T20:02:29.388Z,13.20
2022-12-08T20:04:56.086Z,13.82
2022-12-08T20:07:22.820Z,14.65
2022-12-08T20:09:49.377Z,14.48
2022-12-08T20:12:16.008Z,14.80
2022-12-08T20:14:45.912Z,13.65
2022-12-08T20:17:12.682Z,14.85
2022-12-08T20:19:39.277Z,14.38
2022-12-08T20:22:05.869Z,15.10
2022-12-08T20:24:32.340Z,15.05
2022-12-08T20:26:58.847Z,13.88
2022-12-08T20:29:25.235Z,14.93
2022-12-08T20:31:51.745Z,15.13
2022-12-08T20:34:19.131Z,14.25
2022-12-08T20:36:45.859Z,15.27
2022-12-08T20:39:13.848Z,14.10
2022-12-08T20:41:43.730Z,15.30
2022-12-08T20:44:10.284Z,15.50
2022-12-08T20:46:37.030Z,14.73
2022-12-08T20:49:04.617Z,14.95
2022-12-08T20:51:32.809Z,16.02
2022-12-08T20:53:59.610Z,14.90
2022-12-08T20:56:26.392Z,16.30
2022-12-08T20:58:53.159Z,15.85
2022-12-08T21:01:23.506Z,17.35
2022-12-08T21:03:50.517Z,16.65
2022-12-08T21:06:20.238Z,16.88
2022-12-08T21:08:46.931Z,15.75
2022-12-08T21:11:13.670Z,17.23
2022-12-08T21:13:40.496Z,16.30
2022-12-08T21:16:09.316Z,17.52
2022-12-08T21:18:39.720Z,15.48
2022-12-08T21:21:10.010Z,16.45
2022-12-08T21:23:36.910Z,16.25
2022-12-08T21:26:03.906Z,17.55
2022-12-08T21:28:31.289Z,16.50
2022-12-08T21:30:57.851Z,16.05
2022-12-08T21:33:24.310Z,15.38
2022-12-08T21:35:50.823Z,14.50
2022-12-08T21:38:17.433Z,15.88
2022-12-08T21:40:43.888Z,16.17
2022-12-08T21:43:10.428Z,14.88
2022-12-08T21:45:36.808Z,15.70
2022-12-08T21:48:11.028Z,15.93
2022-12-08T21:50:38.334Z,15.27
2022-12-08T21:53:04.928Z,15.82
2022-12-08T21:55:31.464Z,16.15
2022-12-08T21:58:00.756Z,15.57
2022-12-08T22:00:27.532Z,16.45
2022-12-08T22:02:54.007Z,17.05
2022-12-08T22:05:20.951Z,16.90
2022-12-08T22:07:47.568Z,17.92
2022-12-08T22:10:14.099Z,16.38
2022-12-08T22:12:40.692Z,17.95
2022-12-08T22:15:08.400Z,19.25
2022-12-08T22:17:38.871Z,18.85
2022-12-08T22:20:06.828Z,18.50
2022-12-08T22:22:34.868Z,18.27
2022-12-08T22:25:01.975Z,18.67
2022-12-08T22:27:28.632Z,18.38
2022-12-08T22:29:55.230Z,18.15
2022-12-08T22:32:21.740Z,18.38
2022-12-08T22:34:48.010Z,19.70
2022-12-08T22:37:14.386Z,19.05
2022-12-08T22:39:40.658Z,18.23
2022-12-08T22:42:06.992Z,17.75
2022-12-08T22:44:33.515Z,18.80
2022-12-08T22:47:00.079Z,19.55
2022-12-08T22:49:26.563Z,20.75
2022-12-08T22:51:52.958Z,18.73
2022-12-08T22:54:19.228Z,20.02
2022-12-08T22:56:45.551Z,19.65
2022-12-08T22:59:11.860Z,20.58
2022-12-08T23:01:38.299Z,20.20
2022-12-08T23:04:04.844Z,20.33
2022-12-08T23:06:31.915Z,20.23
2022-12-08T23:08:59.211Z,20.60
2022-12-08T23:11:27.793Z,19.48
2022-12-08T23:13:55.968Z,18.52
2022-12-08T23:16:22.500Z,20.13
2022-12-08T23:18:48.907Z,19.25
2022-12-08T23:21:16.728Z,20.92
2022-12-08T23:23:43.546Z,19.90
2022-12-08T23:26:14.837Z,20.95
2022-12-08T23:28:41.480Z,19.25
2022-12-08T23:31:08.389Z,19.05
2022-12-08T23:33:34.803Z,19.63
2022-12-08T23:36:01.359Z,18.05
2022-12-08T23:38:27.642Z,19.55
2022-12-08T23:40:54.103Z,16.08
2022-12-08T23:43:20.499Z,15.73
2022-12-08T23:45:48.361Z,15.10
2022-12-08T23:48:15.005Z,14.45
2022-12-08T23:50:41.629Z,15.02
2022-12-08T23:53:08.085Z,15.93
2022-12-08T23:55:34.419Z,16.55
2022-12-08T23:58:00.955Z,16.92
